createdAt,value
2019-02-22T00:00:46.707Z,4.32
2019-02-22T00:03:15.332Z,4.25
2019-02-22T00:05:44.148Z,4.18
2019-02-22T00:08:12.720Z,4.17
2019-02-22T00:10:41.285Z,4.17
2019-02-22T00:13:09.952Z,4.13
2019-02-22T00:15:38.679Z,4.12
2019-02-22T00:18:07.175Z,4.20
2019-02-22T00:20:35.781Z,4.14
2019-02-22T00:23:04.495Z,4.01
2019-02-22T00:25:33.119Z,3.95
2019-02-22T00:28:01.808Z,3.84
2019-02-22T00:30:30.374Z,3.79
2019-02-22T00:32:59.113Z,3.75
2019-02-22T00:35:27.813Z,3.65
2019-02-22T00:37:56.255Z,3.50
2019-02-22T00:40:24.899Z,3.51
2019-02-22T00:42:53.706Z,3.39
2019-02-22T00:45:22.197Z,3.38
2019-02-22T00:47:50.816Z,3.39
2019-02-22T00:50:19.493Z,3.44
2019-02-22T00:52:48.347Z,3.52
2019-02-22T00:55:16.895Z,3.59
2019-02-22T00:57:45.579Z,3.59
2019-02-22T01:00:14.673Z,3.57
2019-02-22T01:02:43.310Z,3.54
2019-02-22T01:05:12.000Z,3.55
2019-02-22T01:07:40.709Z,3.62
2019-02-22T01:10:09.339Z,3.68
2019-02-22T01:12:38.011Z,3.77
2019-02-22T01:15:07.028Z,3.90
2019-02-22T01:17:35.650Z,4.03
2019-02-22T01:20:05.108Z,4.04
2019-02-22T01:22:33.730Z,4.02
2019-02-22T01:25:02.354Z,3.99
2019-02-22T01:27:30.945Z,3.85
2019-02-22T01:29:59.436Z,3.75
2019-02-22T01:32:28.054Z,3.68
2019-02-22T01:34:56.963Z,3.66
2019-02-22T01:37:25.537Z,3.65
2019-02-22T01:39:54.959Z,3.47
2019-02-22T01:42:23.630Z,3.38
2019-02-22T01:44:52.181Z,3.39
2019-02-22T01:47:20.668Z,3.32
2019-02-22T01:49:49.441Z,3.21
2019-02-22T01:52:18.091Z,3.02
2019-02-22T01:54:46.705Z,2.95
2019-02-22T01:57:15.373Z,2.86
2019-02-22T01:59:44.349Z,2.90
2019-02-22T02:02:13.019Z,2.70
2019-02-22T02:04:41.644Z,2.69
2019-02-22T02:07:10.281Z,2.62
2019-02-22T02:09:38.841Z,2.55
2019-02-22T02:12:07.520Z,2.37
2019-02-22T02:14:36.085Z,2.33
2019-02-22T02:17:04.704Z,2.35
2019-02-22T02:19:33.319Z,2.40
2019-02-22T02:22:01.941Z,2.40
2019-02-22T02:24:30.574Z,2.32
2019-02-22T02:26:59.113Z,2.29
2019-02-22T02:29:27.696Z,2.42
2019-02-22T02:31:56.354Z,2.49
2019-02-22T02:34:25.141Z,2.43
2019-02-22T02:36:53.789Z,2.45
2019-02-22T02:39:22.340Z,2.49
2019-02-22T02:41:50.935Z,2.49
2019-02-22T02:44:19.497Z,2.45
2019-02-22T02:46:49.898Z,2.27
2019-02-22T02:49:18.583Z,2.12
2019-02-22T02:51:47.150Z,2.24
2019-02-22T02:54:15.709Z,2.25
2019-02-22T02:56:46.275Z,2.17
2019-02-22T02:59:14.661Z,2.07
2019-02-22T03:01:43.362Z,2.11
2019-02-22T03:04:11.971Z,2.23
2019-02-22T03:06:42.241Z,2.26
2019-02-22T03:09:10.795Z,2.21
2019-02-22T03:11:39.312Z,2.30
2019-02-22T03:14:07.944Z,2.45
2019-02-22T03:16:36.571Z,2.52
2019-02-22T03:19:05.481Z,2.60
2019-02-22T03:21:34.111Z,2.51
2019-02-22T03:24:02.670Z,2.39
2019-02-22T03:26:31.279Z,2.29
2019-02-22T03:28:59.827Z,2.31
2019-02-22T03:31:28.449Z,2.21
2019-02-22T03:33:57.069Z,2.19
2019-02-22T03:36:25.628Z,2.08
2019-02-22T03:38:54.194Z,2.17
2019-02-22T03:41:32.194Z,2.20
2019-02-22T03:43:53.136Z,2.06
2019-02-22T03:46:21.803Z,1.95
2019-02-22T03:48:50.458Z,1.83
2019-02-22T03:51:19.095Z,1.90
2019-02-22T03:53:48.954Z,1.81
2019-02-22T03:56:17.576Z,1.80
2019-02-22T03:58:46.210Z,1.72
2019-02-22T04:01:14.781Z,1.67
2019-02-22T04:03:43.656Z,1.57
2019-02-22T04:06:12.296Z,1.50
2019-02-22T04:08:40.871Z,1.50
2019-02-22T04:11:09.466Z,1.36
2019-02-22T04:13:38.090Z,1.26
2019-02-22T04:16:06.705Z,1.28
2019-02-22T04:18:35.667Z,1.28
2019-02-22T04:21:04.222Z,1.28
2019-02-22T04:23:32.785Z,1.38
2019-02-22T04:26:01.708Z,1.33
2019-02-22T04:28:30.340Z,1.33
2019-02-22T04:30:58.854Z,1.48
2019-02-22T04:33:27.452Z,1.44
2019-02-22T04:35:56.088Z,1.44
2019-02-22T04:38:24.664Z,1.35
2019-02-22T04:40:53.222Z,1.48
2019-02-22T04:43:21.778Z,1.51
2019-02-22T04:45:50.417Z,1.39
2019-02-22T04:48:19.103Z,1.47
2019-02-22T04:50:47.582Z,1.58
2019-02-22T04:53:16.129Z,1.65
2019-02-22T04:55:45.095Z,1.56
2019-02-22T04:58:13.667Z,1.80
2019-02-22T05:00:42.254Z,1.82
2019-02-22T05:03:10.927Z,1.92
2019-02-22T05:05:39.628Z,1.87
2019-02-22T05:08:08.216Z,1.82
2019-02-22T05:10:36.868Z,1.78
2019-02-22T05:13:05.526Z,1.77
2019-02-22T05:15:34.092Z,1.74
2019-02-22T05:18:02.700Z,1.75
2019-02-22T05:20:31.315Z,1.82
2019-02-22T05:23:03.783Z,1.92
2019-02-22T05:25:30.200Z,1.99
2019-02-22T05:28:01.504Z,2.05
2019-02-22T05:30:30.149Z,2.06
2019-02-22T05:32:58.777Z,2.12
2019-02-22T05:35:27.278Z,2.24
2019-02-22T05:37:55.832Z,2.34
2019-02-22T05:40:24.544Z,2.46
2019-02-22T05:42:53.099Z,2.47
2019-02-22T05:45:21.583Z,2.53
2019-02-22T05:47:50.183Z,2.63
2019-02-22T05:50:18.806Z,2.81
2019-02-22T05:52:47.395Z,2.82
2019-02-22T05:55:16.439Z,2.98
2019-02-22T05:57:44.998Z,2.95
2019-02-22T06:00:14.334Z,3.12
2019-02-22T06:02:43.014Z,3.19
2019-02-22T06:05:11.656Z,3.18
2019-02-22T06:07:40.286Z,3.06
2019-02-22T06:10:10.341Z,3.24
2019-02-22T06:12:38.967Z,3.19
2019-02-22T06:15:08.691Z,3.27
2019-02-22T06:17:37.370Z,3.43
2019-02-22T06:20:08.901Z,3.52
2019-02-22T06:22:37.456Z,3.58
2019-02-22T06:25:07.317Z,3.70
2019-02-22T06:27:35.930Z,3.74
2019-02-22T06:30:06.862Z,3.80
2019-02-22T06:32:35.725Z,3.72
2019-02-22T06:35:04.842Z,3.74
2019-02-22T06:37:33.426Z,3.80
2019-02-22T06:40:02.073Z,3.88
2019-02-22T06:42:30.637Z,3.93
2019-02-22T06:44:59.217Z,4.02
2019-02-22T06:47:27.807Z,3.92
2019-02-22T06:49:56.490Z,4.14
2019-02-22T06:52:25.129Z,4.28
2019-02-22T06:54:53.756Z,4.28
2019-02-22T06:57:22.333Z,4.27
2019-02-22T06:59:50.952Z,4.31
2019-02-22T07:02:19.932Z,4.39
2019-02-22T07:04:48.486Z,4.44
2019-02-22T07:07:17.185Z,4.27
2019-02-22T07:09:45.853Z,4.34
2019-02-22T07:12:25.364Z,4.49
2019-02-22T07:14:53.966Z,4.41
2019-02-22T07:17:22.516Z,4.29
2019-02-22T07:19:51.165Z,4.34
2019-02-22T07:22:19.854Z,4.19
2019-02-22T07:24:48.536Z,4.19
2019-02-22T07:27:17.182Z,4.22
2019-02-22T07:29:45.722Z,4.35
2019-02-22T07:32:14.287Z,4.38
2019-02-22T07:34:42.921Z,4.51
2019-02-22T07:37:11.778Z,4.54
2019-02-22T07:39:40.257Z,4.57
2019-02-22T07:42:08.821Z,4.63
2019-02-22T07:44:37.754Z,4.66
2019-02-22T07:47:06.317Z,4.75
2019-02-22T07:49:34.820Z,4.75
2019-02-22T07:52:03.595Z,4.81
2019-02-22T07:54:32.158Z,4.82
2019-02-22T07:57:00.789Z,4.82
2019-02-22T07:59:29.443Z,4.88
2019-02-22T08:01:58.008Z,4.93
2019-02-22T08:04:26.504Z,4.97
2019-02-22T08:06:55.153Z,5.08
2019-02-22T08:09:23.777Z,5.13
2019-02-22T08:11:58.624Z,5.31
2019-02-22T08:14:27.257Z,5.47
2019-02-22T08:16:55.816Z,5.65
2019-02-22T08:19:24.444Z,5.76
2019-02-22T08:21:53.008Z,5.88
2019-02-22T08:24:21.828Z,5.89
2019-02-22T08:26:50.662Z,5.96
2019-02-22T08:29:19.277Z,6.11
2019-02-22T08:31:48.110Z,6.17
2019-02-22T08:34:16.714Z,6.26
2019-02-22T08:36:45.340Z,6.30
2019-02-22T08:39:13.905Z,6.44
2019-02-22T08:41:42.481Z,6.60
2019-02-22T08:44:11.107Z,6.78
2019-02-22T08:46:39.929Z,6.74
2019-02-22T08:49:08.423Z,6.75
2019-02-22T08:51:36.998Z,6.86
2019-02-22T08:54:05.660Z,6.96
2019-02-22T08:56:34.318Z,7.05
2019-02-22T08:59:02.934Z,7.36
2019-02-22T09:01:31.715Z,7.46
2019-02-22T09:04:00.349Z,7.61
2019-02-22T09:06:28.910Z,7.62
2019-02-22T09:08:57.433Z,7.72
2019-02-22T09:11:26.063Z,7.73
2019-02-22T09:13:54.632Z,7.83
2019-02-22T09:16:23.508Z,7.82
2019-02-22T09:18:52.151Z,7.87
2019-02-22T09:21:20.776Z,7.87
2019-02-22T09:23:49.306Z,7.68
2019-02-22T09:26:17.934Z,7.48
2019-02-22T09:28:46.584Z,7.50
2019-02-22T09:31:15.179Z,7.61
2019-02-22T09:33:43.738Z,7.52
2019-02-22T09:36:12.301Z,7.62
2019-02-22T09:38:41.059Z,7.49
2019-02-22T09:41:09.672Z,7.52
2019-02-22T09:43:38.161Z,7.78
2019-02-22T09:46:06.780Z,7.72
2019-02-22T09:48:35.546Z,7.82
2019-02-22T09:51:04.114Z,7.60
2019-02-22T09:53:32.617Z,7.20
2019-02-22T09:56:01.186Z,7.20
2019-02-22T09:58:29.844Z,7.19
2019-02-22T10:00:58.406Z,7.40
2019-02-22T10:03:26.873Z,7.37
2019-02-22T10:05:55.716Z,7.23
2019-02-22T10:08:24.315Z,6.91
2019-02-22T10:10:52.862Z,7.12
2019-02-22T10:13:21.392Z,7.19
2019-02-22T10:15:50.021Z,7.07
2019-02-22T10:18:18.655Z,7.00
2019-02-22T10:20:47.337Z,6.87
2019-02-22T10:23:15.851Z,6.81
2019-02-22T10:25:44.492Z,6.67
2019-02-22T10:28:17.868Z,6.77
2019-02-22T10:30:43.454Z,6.80
2019-02-22T10:33:12.085Z,6.69
2019-02-22T10:35:40.744Z,6.51
2019-02-22T10:38:09.317Z,6.61
2019-02-22T10:40:39.316Z,6.59
2019-02-22T10:43:08.185Z,6.47
2019-02-22T10:45:37.109Z,6.44
2019-02-22T10:48:05.857Z,6.55
2019-02-22T10:50:34.524Z,6.60
2019-02-22T10:53:03.175Z,6.69
2019-02-22T10:55:31.802Z,6.80
2019-02-22T10:58:00.627Z,6.97
2019-02-22T11:00:29.244Z,6.75
2019-02-22T11:02:57.880Z,6.86
2019-02-22T11:05:26.487Z,6.78
2019-02-22T11:07:55.012Z,6.96
2019-02-22T11:10:23.651Z,6.91
2019-02-22T11:12:52.301Z,6.74
2019-02-22T11:15:20.962Z,6.92
2019-02-22T11:17:49.587Z,6.93
2019-02-22T11:20:18.432Z,6.86
2019-02-22T11:22:47.046Z,6.76
2019-02-22T11:25:16.639Z,6.76
2019-02-22T11:27:45.427Z,6.64
2019-02-22T11:30:15.267Z,6.85
2019-02-22T11:32:43.753Z,7.04
2019-02-22T11:35:12.419Z,6.96
2019-02-22T11:37:41.047Z,6.91
2019-02-22T11:40:11.704Z,7.06
2019-02-22T11:42:40.522Z,7.01
2019-02-22T11:45:10.332Z,7.10
2019-02-22T11:47:38.969Z,7.17
2019-02-22T11:50:11.423Z,7.05
2019-02-22T11:52:40.053Z,6.99
2019-02-22T11:55:09.889Z,7.23
2019-02-22T11:57:38.644Z,7.20
2019-02-22T12:00:11.363Z,7.01
2019-02-22T12:02:40.051Z,7.21
2019-02-22T12:05:08.645Z,7.37
2019-02-22T12:07:37.125Z,7.48
2019-02-22T12:10:07.855Z,7.38
2019-02-22T12:12:36.568Z,7.29
2019-02-22T12:15:08.293Z,7.34
2019-02-22T12:17:36.793Z,7.20
2019-02-22T12:20:06.773Z,7.26
2019-02-22T12:22:35.395Z,7.28
2019-02-22T12:25:04.621Z,7.24
2019-02-22T12:27:33.196Z,7.14
2019-02-22T12:30:01.753Z,7.07
2019-02-22T12:32:30.301Z,7.24
2019-02-22T12:34:58.919Z,7.15
2019-02-22T12:37:27.543Z,7.14
2019-02-22T12:39:56.277Z,6.89
2019-02-22T12:42:25.151Z,6.84
2019-02-22T12:45:02.554Z,6.66
2019-02-22T12:47:24.065Z,6.81
2019-02-22T12:49:52.660Z,6.77
2019-02-22T12:52:21.154Z,6.54
2019-02-22T12:54:49.710Z,6.48
2019-02-22T12:57:18.378Z,6.67
2019-02-22T12:59:46.926Z,6.67
2019-02-22T13:02:15.494Z,6.66
2019-02-22T13:04:44.080Z,6.68
2019-02-22T13:07:12.717Z,6.65
2019-02-22T13:09:41.289Z,6.66
2019-02-22T13:12:14.109Z,6.64
2019-02-22T13:14:40.388Z,6.58
2019-02-22T13:17:09.090Z,6.57
2019-02-22T13:19:38.004Z,6.68
2019-02-22T13:22:06.627Z,6.55
2019-02-22T13:24:35.184Z,6.55
2019-02-22T13:27:04.001Z,6.46
2019-02-22T13:29:32.564Z,6.25
2019-02-22T13:32:01.182Z,6.31
2019-02-22T13:34:29.790Z,6.24
2019-02-22T13:36:58.348Z,6.24
2019-02-22T13:39:26.979Z,6.21
2019-02-22T13:41:55.815Z,6.29
2019-02-22T13:44:24.520Z,6.12
2019-02-22T13:46:53.094Z,6.28
2019-02-22T13:49:21.903Z,6.19
2019-02-22T13:51:50.531Z,6.26
2019-02-22T13:54:19.094Z,6.27
2019-02-22T13:56:48.153Z,6.16
2019-02-22T13:59:16.811Z,6.26
2019-02-22T14:01:45.402Z,6.23
2019-02-22T14:04:14.068Z,6.24
2019-02-22T14:06:42.705Z,6.20
2019-02-22T14:09:11.306Z,6.33
2019-02-22T14:11:40.805Z,6.37
2019-02-22T14:14:09.363Z,6.39
2019-02-22T14:16:38.010Z,6.32
2019-02-22T14:19:06.699Z,6.52
2019-02-22T14:21:35.234Z,6.39
2019-02-22T14:24:03.785Z,6.39
2019-02-22T14:26:32.471Z,6.36
2019-02-22T14:29:01.038Z,6.47
2019-02-22T14:31:29.656Z,6.36
2019-02-22T14:33:58.212Z,6.23
2019-02-22T14:36:29.054Z,6.21
2019-02-22T14:38:57.119Z,6.27
2019-02-22T14:41:27.937Z,6.24
2019-02-22T14:43:56.200Z,6.23
2019-02-22T14:46:26.167Z,6.09
2019-02-22T14:48:54.891Z,6.04
2019-02-22T14:51:23.511Z,6.01
2019-02-22T14:53:52.350Z,6.15
2019-02-22T14:56:20.830Z,6.11
2019-02-22T14:58:49.459Z,5.92
2019-02-22T15:01:18.094Z,5.97
2019-02-22T15:03:46.977Z,5.98
2019-02-22T15:06:15.744Z,5.80
2019-02-22T15:08:44.311Z,5.79
2019-02-22T15:11:12.958Z,5.75
2019-02-22T15:13:41.508Z,5.66
2019-02-22T15:16:28.089Z,5.57
2019-02-22T15:18:56.711Z,5.57
2019-02-22T15:21:25.338Z,5.35
2019-02-22T15:23:54.191Z,5.41
2019-02-22T15:26:22.814Z,5.54
2019-02-22T15:28:51.343Z,5.34
2019-02-22T15:31:20.083Z,5.12
2019-02-22T15:33:48.633Z,5.18
2019-02-22T15:36:17.234Z,5.10
2019-02-22T15:38:45.856Z,5.13
2019-02-22T15:41:14.478Z,5.02
2019-02-22T15:43:43.349Z,5.03
2019-02-22T15:46:12.609Z,5.02
2019-02-22T15:48:41.295Z,4.97
2019-02-22T15:51:10.062Z,4.90
2019-02-22T15:53:38.604Z,4.88
2019-02-22T15:56:07.252Z,4.85
2019-02-22T15:58:35.918Z,4.96
2019-02-22T16:01:04.746Z,4.84
2019-02-22T16:03:50.359Z,4.85
2019-02-22T16:06:19.012Z,4.86
2019-02-22T16:08:47.644Z,4.83
2019-02-22T16:11:16.497Z,4.90
2019-02-22T16:13:45.149Z,4.90
2019-02-22T16:16:22.960Z,4.78
2019-02-22T16:18:44.187Z,4.83
2019-02-22T16:21:12.674Z,4.78
2019-02-22T16:23:41.297Z,4.75
2019-02-22T16:26:10.040Z,4.72
2019-02-22T16:28:38.660Z,4.70
2019-02-22T16:31:07.564Z,4.73
2019-02-22T16:33:36.216Z,4.70
2019-02-22T16:36:04.713Z,4.72
2019-02-22T16:38:33.259Z,4.80
2019-02-22T16:41:01.925Z,4.66
2019-02-22T16:43:30.494Z,4.71
2019-02-22T16:45:59.119Z,4.65
2019-02-22T16:48:28.011Z,4.54
2019-02-22T16:50:56.654Z,4.62
2019-02-22T16:53:25.206Z,4.57
2019-02-22T16:55:53.760Z,4.45
2019-02-22T16:58:22.310Z,4.55
2019-02-22T17:00:50.947Z,4.52
2019-02-22T17:03:19.620Z,4.55
2019-02-22T17:05:48.185Z,4.54
2019-02-22T17:08:16.753Z,4.52
2019-02-22T17:10:45.558Z,4.58
2019-02-22T17:13:14.196Z,4.58
2019-02-22T17:15:42.843Z,4.58
2019-02-22T17:18:11.514Z,4.58
2019-02-22T17:20:40.014Z,4.58
2019-02-22T17:23:08.587Z,4.57
2019-02-22T17:25:37.252Z,4.62
2019-02-22T17:28:05.798Z,4.65
2019-02-22T17:30:34.325Z,4.52
2019-02-22T17:33:02.929Z,4.55
2019-02-22T17:35:31.604Z,4.57
2019-02-22T17:38:00.144Z,4.59
2019-02-22T17:40:31.271Z,4.46
2019-02-22T17:42:59.905Z,4.43
2019-02-22T17:45:28.537Z,4.52
2019-02-22T17:47:57.269Z,4.47
2019-02-22T17:50:25.851Z,4.54
2019-02-22T17:52:54.398Z,4.39
2019-02-22T17:55:22.945Z,4.46
2019-02-22T17:57:51.503Z,4.43
2019-02-22T18:00:21.758Z,4.44
2019-02-22T18:02:50.438Z,4.41
2019-02-22T18:05:18.993Z,4.41
2019-02-22T18:07:47.561Z,4.46
2019-02-22T18:10:16.228Z,4.43
2019-02-22T18:12:44.811Z,4.30
2019-02-22T18:15:17.610Z,4.31
2019-02-22T18:17:47.286Z,4.45
2019-02-22T18:20:15.900Z,4.22
2019-02-22T18:22:44.482Z,4.25
2019-02-22T18:25:13.525Z,4.36
2019-02-22T18:27:42.089Z,4.35
2019-02-22T18:30:19.594Z,4.33
2019-02-22T18:32:48.378Z,4.35
2019-02-22T18:35:17.277Z,4.30
2019-02-22T18:37:45.886Z,4.32
2019-02-22T18:40:22.147Z,4.27
2019-02-22T18:42:51.009Z,4.23
2019-02-22T18:45:19.651Z,4.24
2019-02-22T18:47:48.204Z,4.28
2019-02-22T18:50:16.828Z,4.25
2019-02-22T18:52:45.415Z,4.29
2019-02-22T18:55:14.039Z,4.28
2019-02-22T18:57:42.655Z,4.33
2019-02-22T19:00:21.178Z,4.32
2019-02-22T19:02:50.274Z,4.40
2019-02-22T19:05:18.927Z,4.38
2019-02-22T19:07:47.566Z,4.31
2019-02-22T19:10:19.951Z,4.36
2019-02-22T19:12:48.510Z,4.40
2019-02-22T19:15:17.242Z,4.34
2019-02-22T19:17:46.036Z,4.31
2019-02-22T19:20:16.571Z,4.36
2019-02-22T19:22:45.199Z,4.35
2019-02-22T19:25:13.873Z,4.35
2019-02-22T19:27:42.500Z,4.38
2019-02-22T19:30:19.332Z,4.42
2019-02-22T19:32:48.113Z,4.34
2019-02-22T19:35:16.707Z,4.30
2019-02-22T19:37:45.620Z,4.23
2019-02-22T19:40:20.245Z,4.25
2019-02-22T19:42:48.824Z,4.20
2019-02-22T19:45:17.623Z,4.16
2019-02-22T19:47:46.258Z,4.18
2019-02-22T19:50:15.197Z,4.08
2019-02-22T19:52:43.817Z,4.13
2019-02-22T19:55:16.996Z,4.16
2019-02-22T19:57:45.556Z,4.12
2019-02-22T20:00:18.861Z,4.14
2019-02-22T20:02:47.471Z,4.10
2019-02-22T20:05:16.312Z,4.16
2019-02-22T20:07:45.004Z,4.19
2019-02-22T20:10:18.177Z,4.13
2019-02-22T20:12:46.300Z,4.15
2019-02-22T20:15:18.697Z,4.12
2019-02-22T20:17:53.770Z,4.10
2019-02-22T20:20:18.677Z,4.10
2019-02-22T20:22:47.564Z,4.18
2019-02-22T20:25:16.270Z,4.14
2019-02-22T20:27:44.901Z,4.06
2019-02-22T20:30:17.755Z,4.11
2019-02-22T20:32:46.348Z,4.12
2019-02-22T20:35:17.617Z,4.08
2019-02-22T20:37:52.550Z,4.10
2019-02-22T20:40:16.573Z,4.05
2019-02-22T20:42:45.202Z,3.98
2019-02-22T20:45:14.082Z,3.97
2019-02-22T20:47:42.718Z,4.03
2019-02-22T20:50:12.550Z,4.05
2019-02-22T20:52:41.220Z,3.98
2019-02-22T20:55:10.750Z,3.94
2019-02-22T20:57:39.310Z,3.93
2019-02-22T21:00:25.116Z,3.91
2019-02-22T21:02:53.681Z,3.93
2019-02-22T21:05:22.538Z,4.03
2019-02-22T21:07:51.094Z,4.03
2019-02-22T21:10:20.940Z,4.02
2019-02-22T21:12:49.838Z,4.03
2019-02-22T21:15:18.408Z,4.10
2019-02-22T21:17:46.994Z,4.13
2019-02-22T21:20:20.766Z,4.03
2019-02-22T21:22:49.403Z,4.05
2019-02-22T21:25:18.029Z,4.02
2019-02-22T21:27:46.634Z,4.02
2019-02-22T21:30:16.862Z,4.10
2019-02-22T21:32:45.500Z,4.05
2019-02-22T21:35:14.169Z,4.10
2019-02-22T21:37:43.609Z,4.07
2019-02-22T21:40:13.145Z,4.04
2019-02-22T21:42:41.754Z,4.09
2019-02-22T21:45:15.170Z,4.16
2019-02-22T21:47:54.435Z,4.20
2019-02-22T21:50:15.476Z,4.18
2019-02-22T21:52:43.861Z,4.22
2019-02-22T21:55:16.109Z,4.24
2019-02-22T21:57:44.693Z,4.26
2019-02-22T22:00:18.567Z,4.10
2019-02-22T22:02:47.190Z,4.09
2019-02-22T22:05:15.949Z,4.08
2019-02-22T22:07:44.499Z,4.11
2019-02-22T22:10:13.209Z,4.04
2019-02-22T22:12:42.052Z,4.03
2019-02-22T22:15:12.607Z,4.03
2019-02-22T22:17:41.243Z,3.99
2019-02-22T22:20:11.392Z,4.01
2019-02-22T22:22:40.102Z,4.20
2019-02-22T22:25:10.719Z,4.11
2019-02-22T22:27:39.486Z,4.02
2019-02-22T22:30:10.778Z,4.11
2019-02-22T22:32:39.399Z,3.83
2019-02-22T22:35:14.092Z,3.10
2019-02-22T22:37:42.724Z,2.57
2019-02-22T22:40:11.652Z,2.06
2019-02-22T22:42:40.313Z,1.57
2019-02-22T22:45:13.169Z,1.22
2019-02-22T22:47:44.695Z,1.05
2019-02-22T22:50:17.243Z,0.76
2019-02-22T22:52:45.961Z,0.74
2019-02-22T22:55:14.636Z,0.66
2019-02-22T22:57:43.198Z,0.63
2019-02-22T23:00:40.179Z,0.64
2019-02-22T23:03:08.891Z,0.65
2019-02-22T23:05:37.510Z,0.55
2019-02-22T23:08:06.174Z,0.45
2019-02-22T23:10:34.803Z,0.49
2019-02-22T23:13:03.378Z,0.41
2019-02-22T23:15:32.157Z,0.28
2019-02-22T23:18:00.705Z,0.09
2019-02-22T23:20:29.258Z,-0.01
2019-02-22T23:22:57.919Z,-0.04
2019-02-22T23:25:26.540Z,-0.20
2019-02-22T23:27:55.155Z,-0.20
2019-02-22T23:30:23.681Z,-0.20
2019-02-22T23:32:52.309Z,-0.16
2019-02-22T23:35:21.336Z,-0.35
2019-02-22T23:37:49.952Z,-0.85
2019-02-22T23:40:18.442Z,-1.21
2019-02-22T23:42:47.116Z,-1.21
2019-02-22T23:45:15.793Z,-1.25
2019-02-22T23:47:44.352Z,-1.34
2019-02-22T23:50:12.977Z,-1.59
2019-02-22T23:52:41.662Z,-1.64
2019-02-22T23:55:10.233Z,-1.53
2019-02-22T23:57:38.871Z,-1.53
